Flight Track Log - Related Links

Times and Time Zones

All times are in EDT time to prevent confusion due to time zone crossing. See the AVN10 flight status page for this flight to view local times or setup timezone preferences in your user account.

Time Position Orientation Groundspeed Altitude Reporting Facility
EDT Latitude Longitude Course Direction KTS MPH feet Rate Location/Type
Wed 12:43:00 AM -18.4390 167.5206 226° Southwest  Level FlightAware Approximate
Wed 12:44:00 AM -18.4957 167.4589 226° Southwest  Level FlightAware Approximate
Wed 12:45:00 AM -18.5525 167.3971 226° Southwest  Level FlightAware Approximate
Wed 12:46:00 AM -18.6092 167.3353 226° Southwest  Level FlightAware Approximate
Wed 12:47:00 AM -18.6659 167.2734 226° Southwest  Level FlightAware Approximate
Wed 12:48:00 AM -18.7226 167.2115 226° Southwest  Level FlightAware Approximate
Wed 12:49:00 AM -18.7792 167.1495 226° Southwest  Level FlightAware Approximate
Wed 12:50:00 AM -18.8359 167.0875 226° Southwest  Level FlightAware Approximate
Wed 12:51:00 AM -18.8925 167.0255 226° Southwest  Level FlightAware Approximate
Wed 12:52:00 AM -18.9491 166.9634 226° Southwest  Level FlightAware Approximate
Wed 12:53:00 AM -19.0057 166.9012 226° Southwest  Level FlightAware Approximate
Wed 12:54:00 AM -19.0622 166.8391 226° Southwest  Level FlightAware Approximate
Wed 12:55:00 AM -19.1188 166.7769 226° Southwest  Level FlightAware Approximate
Wed 12:56:00 AM -19.1753 166.7146 226° Southwest  Level FlightAware Approximate
Wed 12:57:00 AM -19.2318 166.6523 226° Southwest  Level FlightAware Approximate
Wed 12:58:00 AM -19.2882 166.5900 226° Southwest  Level FlightAware Approximate
Wed 12:59:00 AM -19.3447 166.5276 226° Southwest  Level FlightAware Approximate
Wed 01:00:00 AM -19.4011 166.4651 226° Southwest  Level FlightAware Approximate
Wed 01:01:00 AM -19.4575 166.4027 226° Southwest  Level FlightAware Approximate
Wed 01:02:00 AM -19.5139 166.3402 226° Southwest  Level FlightAware Approximate
Wed 01:03:00 AM -19.5703 166.2776 226° Southwest  Level FlightAware Approximate
Wed 01:04:00 AM -19.6266 166.2150 226° Southwest  Level FlightAware Approximate
Wed 01:05:00 AM -19.6829 166.1524 226° Southwest  Level FlightAware Approximate
Wed 01:06:00 AM -19.7392 166.0897 226° Southwest  Level FlightAware Approximate
Wed 01:07:00 AM -19.7955 166.0269 226° Southwest  Level FlightAware Approximate
Wed 01:08:00 AM -19.8518 165.9642 226° Southwest  Level FlightAware Approximate
Wed 01:09:00 AM -19.9143 165.9085 212° Southwest  Level Estimated
Wed 01:10:00 AM -19.9789 165.8555 218° Southwest  Level FlightAware Approximate
Wed 01:11:00 AM -20.0435 165.8025 218° Southwest  Level FlightAware Approximate
Wed 01:12:00 AM -20.1080 165.7494 218° Southwest  Level FlightAware Approximate
Wed 01:13:00 AM -20.1726 165.6963 218° Southwest  Level FlightAware Approximate
Wed 01:14:00 AM -20.2371 165.6431 218° Southwest  Level FlightAware Approximate
Wed 01:15:00 AM -20.3016 165.5900 218° Southwest  Level FlightAware Approximate
Wed 01:16:00 AM -20.3661 165.5367 218° Southwest  Level FlightAware Approximate
Wed 01:17:00 AM -20.4306 165.4834 218° Southwest  Level FlightAware Approximate
Wed 01:18:00 AM -20.4951 165.4301 218° Southwest  Level FlightAware Approximate
Wed 01:19:00 AM -20.5595 165.3767 218° Southwest  Level FlightAware Approximate
Wed 01:20:00 AM -20.6240 165.3233 218° Southwest  Level FlightAware Approximate
Wed 01:21:00 AM -20.6884 165.2698 218° Southwest  Level FlightAware Approximate
Wed 01:22:00 AM -20.7528 165.2163 218° Southwest  Level FlightAware Approximate
Wed 01:23:00 AM -20.8172 165.1628 218° Southwest  Level FlightAware Approximate
Wed 01:23:16 AM -21.6802 163.8842 219° Southwest 32,000  Level Aus ATC (Calculated)
Wed 01:25:00 AM -21.7908 163.7963 216° Southwest  Level FlightAware Approximate
Wed 01:26:00 AM -21.8547 163.7456 216° Southwest  Level FlightAware Approximate
Wed 01:26:16 AM -21.9108 163.6160 219° Southwest 32,000  Level Aus ATC (Calculated)
Wed 01:28:00 AM -22.0218 163.5284 216° Southwest  Level FlightAware Approximate
Wed 01:28:01 AM -22.0382 163.4673 219° Southwest 32,000  Level Aus ATC (Calculated)
Wed 01:30:00 AM -22.1654 163.3673 216° Southwest  Level FlightAware Approximate
Wed 01:31:00 AM -22.2295 163.3169 216° Southwest  Level FlightAware Approximate
Wed 01:31:45 AM -22.2776 163.1867 219° Southwest 32,000  Level Aus ATC (Calculated)
Wed 01:32:00 AM -22.2936 163.2664 216° Southwest  Level FlightAware Approximate
Wed 01:32:23 AM -22.3142 163.1437 219° Southwest 32,000  Level Aus ATC (Calculated)
Wed 01:34:00 AM -22.4178 163.0630 216° Southwest  Level FlightAware Approximate
Wed 01:34:16 AM -22.4223 163.0163 218° Southwest 32,000  Level Aus ATC (Calculated)
Wed 01:35:31 AM -22.5253 162.8948 218° Southwest 32,000 58 Level Aus ATC (Calculated)
Wed 01:35:36 AM -22.5253 162.8948 218° Southwest 32,000 59 Level Aus ATC (Calculated)
Wed 01:37:00 AM -22.6149 162.8256 215° Southwest  Level FlightAware Approximate
Wed 01:38:00 AM -22.6788 162.7761 216° Southwest  Level FlightAware Approximate
Wed 01:39:00 AM -22.7428 162.7266 216° Southwest  Level FlightAware Approximate
Wed 01:40:00 AM -22.8067 162.6770 216° Southwest  Level FlightAware Approximate
Wed 01:41:00 AM -22.8707 162.6274 216° Southwest  Level FlightAware Approximate
Wed 01:42:00 AM -22.9346 162.5778 216° Southwest  Level FlightAware Approximate
Wed 01:43:00 AM -22.9985 162.5281 216° Southwest  Level FlightAware Approximate
Wed 01:44:00 AM -23.0623 162.4783 216° Southwest  Level FlightAware Approximate
Wed 01:45:00 AM -23.1262 162.4285 216° Southwest  Level FlightAware Approximate
Wed 01:46:00 AM -23.1901 162.3786 216° Southwest  Level FlightAware Approximate
Wed 01:46:56 AM -23.3721 161.8840 217° Southwest 32,000  Level Aus ATC (Calculated)
Wed 01:47:00 AM -23.2539 162.3287 216° Southwest  Level FlightAware Approximate
Wed 01:48:00 AM -23.4414 161.8325 214° Southwest  Level FlightAware Approximate
Wed 01:49:00 AM -23.5063 161.7843 214° Southwest  Level FlightAware Approximate
Wed 01:50:00 AM -23.5712 161.7359 214° Southwest  Level FlightAware Approximate
Wed 01:51:00 AM -23.6361 161.6876 214° Southwest  Level FlightAware Approximate
Wed 01:52:00 AM -23.7010 161.6392 214° Southwest  Level FlightAware Approximate
Wed 01:53:00 AM -23.7659 161.5907 214° Southwest  Level FlightAware Approximate
Wed 01:54:00 AM -23.8308 161.5422 214° Southwest  Level FlightAware Approximate
Wed 01:55:00 AM -23.8956 161.4936 214° Southwest  Level FlightAware Approximate
Wed 01:56:00 AM -23.9605 161.4450 214° Southwest  Level FlightAware Approximate
Wed 01:57:00 AM -24.0253 161.3964 214° Southwest  Level FlightAware Approximate
Wed 01:58:00 AM -24.0901 161.3477 214° Southwest  Level FlightAware Approximate
Wed 01:59:00 AM -24.1549 161.2989 214° Southwest  Level FlightAware Approximate
Wed 02:00:00 AM -24.2197 161.2501 214° Southwest  Level FlightAware Approximate
Wed 02:01:00 AM -24.2844 161.2013 215° Southwest  Level FlightAware Approximate
Wed 02:02:00 AM -24.3492 161.1524 215° Southwest  Level FlightAware Approximate
Wed 02:03:00 AM -24.4139 161.1034 215° Southwest  Level FlightAware Approximate
Wed 02:04:00 AM -24.4786 161.0544 215° Southwest  Level FlightAware Approximate
Wed 02:05:00 AM -24.5433 161.0054 215° Southwest  Level FlightAware Approximate
Wed 02:06:00 AM -24.6080 160.9563 215° Southwest  Level FlightAware Approximate
Wed 02:07:00 AM -24.6726 160.9071 215° Southwest  Level FlightAware Approximate
Wed 02:07:01 AM -24.9912 160.1168 212° Southwest 32,000  Level Aus ATC (Calculated)
Wed 02:09:00 AM -25.1239 160.0265 212° Southwest  Level FlightAware Approximate
Wed 02:10:00 AM -25.1908 159.9809 212° Southwest  Level FlightAware Approximate
Wed 02:10:01 AM -25.2861 159.9158 212° Southwest 32,000  Level Aus ATC (Calculated)
Wed 02:11:31 AM -25.4334 159.8149 212° Southwest 32,000 119 Level Aus ATC (Calculated)
Wed 02:13:00 AM -25.5312 159.7478 212° Southwest  Level FlightAware Approximate
Wed 02:14:00 AM -25.5971 159.7025 212° Southwest  Level FlightAware Approximate
Wed 02:15:00 AM -25.6630 159.6572 212° Southwest  Level FlightAware Approximate
Wed 02:16:00 AM -25.7289 159.6118 212° Southwest  Level FlightAware Approximate
Wed 02:17:00 AM -25.7947 159.5663 212° Southwest  Level FlightAware Approximate
Wed 02:17:26 AM -26.0221 159.4090 212° Southwest 32,000  Level Aus ATC (Calculated)
Wed 02:19:00 AM -26.1252 159.3374 212° Southwest  Level FlightAware Approximate
Wed 02:20:00 AM -26.1909 159.2916 212° Southwest  Level FlightAware Approximate
Wed 02:21:00 AM -26.2567 159.2458 212° Southwest  Level FlightAware Approximate
Wed 02:21:50 AM -26.4628 159.1018 212° Southwest 32,000  Level Aus ATC (Calculated)
Wed 02:22:00 AM -26.3224 159.1999 212° Southwest  Level FlightAware Approximate
Wed 02:23:00 AM -26.3882 159.1540 212° Southwest  Level FlightAware Approximate
Wed 02:24:00 AM -26.6051 159.0020 212° Southwest  Level FlightAware Approximate
Wed 02:25:00 AM -26.6708 158.9559 212° Southwest  Level FlightAware Approximate
Wed 02:26:00 AM -26.7364 158.9097 212° Southwest  Level FlightAware Approximate
Wed 02:27:00 AM -26.8020 158.8635 212° Southwest  Level FlightAware Approximate
Wed 02:28:00 AM -26.8677 158.8172 212° Southwest  Level FlightAware Approximate
Wed 02:29:00 AM -26.9333 158.7708 212° Southwest  Level FlightAware Approximate
Wed 02:30:00 AM -26.9988 158.7244 212° Southwest  Level FlightAware Approximate
Wed 02:30:09 AM -27.2933 158.5153 212° Southwest 32,000  Level Aus ATC (Calculated)
Wed 02:31:18 AM -27.4396 158.4109 212° Southwest 32,000 296 Level Aus ATC (Calculated)
Wed 02:32:54 AM -27.5858 158.3062 212° Southwest 32,000 323 Level Aus ATC (Calculated)
Wed 02:33:00 AM -27.5509 158.3313 212° Southwest  Level FlightAware Approximate
Wed 02:33:48 AM -27.6832 158.2363 211° Southwest 32,000  Level Aus ATC (Calculated)
Wed 02:34:00 AM -27.6577 158.2546 212° Southwest  Level FlightAware Approximate
Wed 02:35:00 AM -27.7617 158.1798 212° Southwest  Level FlightAware Approximate
Wed 02:35:04 AM -27.7806 158.1662 33° Northeast 32,000  Level Aus ATC (Calculated)
Wed 02:36:48 AM -27.9753 158.0257 33° Northeast 32,000 464 Level Aus ATC (Calculated)
Wed 02:37:00 AM -27.9753 158.0257 33° Northeast 32,000 581 Level Aus ATC (Calculated)
Wed 02:38:09 AM -28.0504 157.9713 213° Southwest  Level FlightAware Approximate
Wed 02:40:00 AM -28.1712 157.8837 213° Southwest  Level FlightAware Approximate
Wed 02:41:00 AM -28.2365 157.8362 213° Southwest  Level FlightAware Approximate
Wed 02:41:02 AM -28.3641 157.7433 33° Northeast 32,000  Level Aus ATC (Calculated)
Wed 02:41:22 AM -28.4127 157.7078 33° Northeast 32,000 1,509 Level Aus ATC (Calculated)
Wed 02:43:00 AM -28.5192 157.6299 213° Southwest  Level FlightAware Approximate
Wed 02:43:12 AM -28.6069 157.5656 33° Northeast 32,000  Level Aus ATC (Calculated)
Wed 02:43:41 AM -27.7165 158.2139 213° Southwest 370 426 36,000 3,750 Climbing Aus ATC (RADAR)
Wed 02:44:16 AM -27.7613 158.1752 217° Southwest 362 417 36,000  Level Aus ATC (RADAR)
Wed 02:45:02 AM -27.8299 158.1285 211° Southwest 367 422 36,000  Level Aus ATC (RADAR)
Wed 02:45:31 AM -27.8733 158.0970 213° Southwest 373 429 36,000  Level Aus ATC (RADAR)
Wed 02:46:31 AM -27.9551 158.0321 215° Southwest 369 425 36,000  Level Aus ATC (RADAR)
Wed 02:46:46 AM -27.9798 158.0163 210° Southwest 380 437 36,000  Level Aus ATC (RADAR)
Wed 02:47:21 AM -28.0337 157.9789 211° Southwest 387 445 36,000  Level Aus ATC (RADAR)
Wed 02:48:36 AM -28.1510 157.8981 211° Southwest 390 449 36,000  Level Aus ATC (RADAR)
Wed 02:49:01 AM -28.1898 157.8731 210° Southwest 385 443 36,000  Level Aus ATC (RADAR)
Wed 02:49:36 AM -28.2464 157.8387 208° Southwest 388 447 36,000  Level Aus ATC (RADAR)
Wed 02:50:21 AM -28.3181 157.7943 209° Southwest 392 451 36,000  Level Aus ATC (RADAR)
Wed 02:50:56 AM -28.3743 157.7594 209° Southwest 394 453 36,000  Level Aus ATC (RADAR)
Wed 02:51:46 AM -28.4552 157.7097 208° Southwest 396 456 36,000  Level Aus ATC (RADAR)
Wed 02:52:11 AM -28.4964 157.6847 208° Southwest 399 459 36,000  Level Aus ATC (RADAR)
Wed 02:53:01 AM -28.5763 157.6348 209° Southwest 397 457 36,000  Level Aus ATC (RADAR)
Wed 02:53:26 AM -28.6172 157.6098 208° Southwest 397 457 36,000  Level Aus ATC (RADAR)
Wed 02:53:51 AM -28.6579 157.5846 209° Southwest 399 459 36,000  Level Aus ATC (RADAR)
Wed 02:54:25 AM -28.7147 157.5492 209° Southwest 399 459 36,000  Level Aus ATC (RADAR)
Wed 02:55:10 AM -28.7884 157.5037 208° Southwest 402 463 36,000  Level Aus ATC (RADAR)
Wed 02:55:50 AM -28.8538 157.4630 209° Southwest 402 463 36,000  Level Aus ATC (RADAR)
Wed 02:56:40 AM -28.9354 157.4123 209° Southwest 402 463 36,000  Level Aus ATC (RADAR)
Wed 02:56:55 AM -28.9600 157.3969 209° Southwest 403 464 36,000  Level Aus ATC (RADAR)
Wed 02:57:30 AM -29.0170 157.3613 209° Southwest 403 464 36,000  Level Aus ATC (RADAR)
Wed 02:58:30 AM -29.1150 157.2998 209° Southwest 404 465 36,000  Level Aus ATC (RADAR)
Wed 02:58:55 AM -29.1558 157.2741 209° Southwest 404 465 36,000  Level Aus ATC (RADAR)
Wed 02:59:30 AM -29.2118 157.2328 213° Southwest 410 472 36,000  Level Aus ATC (RADAR)
Wed 03:00:16 AM -29.2775 157.1730 218° Southwest 409 471 36,000 -141 Level Aus ATC (RADAR)
Wed 03:00:55 AM -29.3344 157.1212 218° Southwest 399 459 35,800 -72 Descending Aus ATC (RADAR)
Wed 03:01:39 AM -29.4001 157.0619 218° Southwest 399 459 35,900 87 Climbing Aus ATC (RADAR)
Wed 03:02:04 AM -29.4367 157.0291 218° Southwest 401 461 35,900  Level Aus ATC (RADAR)
Wed 03:02:39 AM -29.4871 156.9837 218° Southwest 398 458 35,900  Level Aus ATC (RADAR)
Wed 03:03:24 AM -29.5530 156.9242 218° Southwest 401 461 35,900 86 Level Aus ATC (RADAR)
Wed 03:03:49 AM -29.5900 156.8909 218° Southwest 404 465 36,000  Climbing Aus ATC (RADAR)
Wed 03:04:29 AM -29.6484 156.8379 218° Southwest 402 463 35,900 -141 Descending Aus ATC (RADAR)
Wed 03:05:14 AM -29.7140 156.7781 218° Southwest 402 463 35,800 -71 Descending Aus ATC (RADAR)
Wed 03:05:54 AM -29.7723 156.7254 218° Southwest 401 461 35,800 67 Level Aus ATC (RADAR)
Wed 03:06:44 AM -29.8449 156.6593 218° Southwest 400 460 35,900  Climbing Aus ATC (RADAR)
Wed 03:07:09 AM -29.8815 156.6262 218° Southwest 400 460 35,800 -100 Descending Aus ATC (RADAR)
Wed 03:07:44 AM -29.9328 156.5795 218° Southwest 402 463 35,800  Level Aus ATC (RADAR)
Wed 03:08:39 AM -30.0130 156.5061 218° Southwest 402 463 35,800 71 Level Aus ATC (RADAR)
Wed 03:09:09 AM -30.0574 156.4656 218° Southwest 404 465 35,900  Climbing Aus ATC (RADAR)
Wed 03:09:44 AM -30.1092 156.4182 218° Southwest 407 468 35,800 -81 Descending Aus ATC (RADAR)
Wed 03:10:23 AM -30.1674 156.3647 218° Southwest 404 465 35,800  Level Aus ATC (RADAR)
Wed 03:10:58 AM -30.2186 156.3175 219° Southwest 404 465 35,800  Level Aus ATC (RADAR)
Wed 03:11:43 AM -30.2851 156.2565 218° Southwest 407 468 35,800  Level Aus ATC (RADAR)
Wed 03:12:08 AM -30.3223 156.2223 218° Southwest 410 472 35,800  Level Aus ATC (RADAR)
Wed 03:12:43 AM -30.3740 156.1745 219° Southwest 409 471 35,800  Level Aus ATC (RADAR)
Wed 03:13:43 AM -30.4632 156.0920 219° Southwest 411 473 35,800  Level Aus ATC (RADAR)
Wed 03:14:08 AM -30.5004 156.0575 219° Southwest 412 474 35,800  Level Aus ATC (RADAR)
Wed 03:14:43 AM -30.5521 156.0098 219° Southwest 409 471 35,800  Level Aus ATC (RADAR)
Wed 03:15:38 AM -30.6340 155.9337 219° Southwest 412 474 35,800  Level Aus ATC (RADAR)
Wed 03:16:13 AM -30.6861 155.8852 219° Southwest 413 475 35,800  Level Aus ATC (RADAR)
Wed 03:16:58 AM -30.7533 155.8226 219° Southwest 414 476 35,800  Level Aus ATC (RADAR)
Wed 03:17:28 AM -30.7982 155.7808 219° Southwest 415 478 35,800  Level Aus ATC (RADAR)
Wed 03:18:03 AM -30.8509 155.7316 219° Southwest 417 480 35,800  Level Aus ATC (RADAR)
Wed 03:18:58 AM -30.9338 155.6540 219° Southwest 418 481 35,800  Level Aus ATC (RADAR)
Wed 03:19:28 AM -30.9791 155.6115 219° Southwest 419 482 35,800  Level Aus ATC (RADAR)
Wed 03:20:03 AM -31.0323 155.5616 219° Southwest 421 484 35,800  Level Aus ATC (RADAR)
Wed 03:20:38 AM -31.0855 155.5115 219° Southwest 423 487 35,800  Level Aus ATC (RADAR)
Wed 03:21:12 AM -31.1389 155.4618 219° Southwest 422 486 35,800  Level Aus ATC (RADAR)
Wed 03:21:57 AM -31.2074 155.3979 219° Southwest 422 486 35,800  Level Aus ATC (RADAR)
Wed 03:22:22 AM -31.2448 155.3621 219° Southwest 420 483 35,800  Level Aus ATC (RADAR)
Wed 03:23:02 AM -31.3052 155.3042 219° Southwest 422 486 35,800  Level Aus ATC (RADAR)
Wed 03:24:17 AM -31.4193 155.1962 219° Southwest 423 487 35,800  Level Aus ATC (RADAR)
Wed 03:24:32 AM -31.4419 155.1748 219° Southwest 421 484 35,800  Level Aus ATC (RADAR)
Wed 03:25:07 AM -31.4947 155.1244 219° Southwest 419 482 35,800  Level Aus ATC (RADAR)
Wed 03:25:52 AM -31.5627 155.0594 219° Southwest 421 484 35,800  Level Aus ATC (RADAR)
Wed 03:26:27 AM -31.6158 155.0088 219° Southwest 422 486 35,800  Level Aus ATC (RADAR)
Wed 03:27:12 AM -31.6836 154.9440 219° Southwest 421 484 35,800  Level Aus ATC (RADAR)
Wed 03:27:42 AM -31.7288 154.9009 219° Southwest 420 483 35,800 273 Level Aus ATC (RADAR)
Wed 03:27:56 AM -31.7460 154.8840 219° Southwest 418 481 36,000  Climbing FlightAware ADS-B
Wed 03:28:17 AM -31.7811 154.8506 219° Southwest 418 481 35,800  Descending Aus ATC (RADAR)
Wed 03:28:28 AM -31.7920 154.8400 219° Southwest 417 480 36,000 240 Climbing FlightAware ADS-B
Wed 03:29:07 AM -31.8510 154.7840 219° Southwest 415 478 36,000 -162 Level FlightAware ADS-B
Wed 03:29:42 AM -31.9074 154.7292 219° Southwest 414 476 35,800  Descending Aus ATC (RADAR)
Wed 03:29:43 AM -31.9000 154.7360 219° Southwest 415 478 36,000  Climbing FlightAware ADS-B
Wed 03:30:17 AM -31.9593 154.6791 219° Southwest 415 478 35,800  Descending Aus ATC (RADAR)
Wed 03:30:26 AM -31.9690 154.6700 219° Southwest 415 478 36,000 279 Climbing FlightAware ADS-B
Wed 03:31:00 AM -32.0190 154.6220 219° Southwest 415 478 36,000  Level FlightAware ADS-B
Wed 03:31:41 AM -32.0790 154.5640 219° Southwest 414 476 36,000 -169 Level FlightAware ADS-B
Wed 03:32:11 AM -32.1292 154.5150 219° Southwest 410 472 35,800  Descending Aus ATC (RADAR)
Wed 03:32:37 AM -32.1640 154.4820 219° Southwest 412 474 36,000 214 Climbing FlightAware ADS-B
Wed 03:33:07 AM -32.2070 154.4400 220° Southwest 412 474 36,000  Level FlightAware ADS-B
Wed 03:33:55 AM -32.2700 154.3790 219° Southwest 410 472 36,000  Level FlightAware ADS-B
Wed 03:34:24 AM -32.3200 154.3300 220° Southwest 409 471 36,000  Level FlightAware ADS-B
Wed 03:35:00 AM -32.3730 154.2780 220° Southwest 411 473 36,000  Level FlightAware ADS-B
Wed 03:35:36 AM -32.4250 154.2270 220° Southwest 414 476 36,000  Level FlightAware ADS-B
Wed 03:36:14 AM -32.4840 154.1700 219° Southwest 415 478 36,000  Level FlightAware ADS-B
Wed 03:36:45 AM -32.5230 154.1310 220° Southwest 416 479 36,000  Level FlightAware ADS-B
Wed 03:37:18 AM -32.5770 154.0790 219° Southwest 417 480 36,000  Level FlightAware ADS-B
Wed 03:37:52 AM -32.6260 154.0310 220° Southwest 418 481 36,000  Level FlightAware ADS-B
Wed 03:38:29 AM -32.6790 153.9790 220° Southwest 420 483 36,000  Level FlightAware ADS-B
Wed 03:39:13 AM -32.7470 153.9110 220° Southwest 421 484 36,000  Level FlightAware ADS-B
Wed 03:39:46 AM -32.7980 153.8610 219° Southwest 422 486 36,000  Level FlightAware ADS-B
Wed 03:40:23 AM -32.8540 153.8060 220° Southwest 423 487 36,000  Level FlightAware ADS-B
Wed 03:41:05 AM -32.9160 153.7440 220° Southwest 423 487 36,000  Level FlightAware ADS-B
Wed 03:41:41 AM -32.9690 153.6910 220° Southwest 425 489 36,000  Level FlightAware ADS-B
Wed 03:42:13 AM -33.0210 153.6390 220° Southwest 423 487 36,000  Level FlightAware ADS-B
Wed 03:42:49 AM -33.0700 153.5900 220° Southwest 423 487 36,000  Level FlightAware ADS-B
Wed 03:43:26 AM -33.1270 153.5340 219° Southwest 423 487 36,000  Level FlightAware ADS-B
Wed 03:44:00 AM -33.1780 153.4830 220° Southwest 422 486 36,000  Level FlightAware ADS-B
Wed 03:44:33 AM -33.2290 153.4320 220° Southwest 422 486 36,000 -269 Level FlightAware ADS-B
Wed 03:45:07 AM -33.2841 153.3765 220° Southwest 414 476 35,700  Descending Aus ATC (RADAR)
Wed 03:45:10 AM -33.2840 153.3760 220° Southwest 422 486 36,000  Climbing FlightAware ADS-B
Wed 03:45:45 AM -33.3400 153.3198 220° Southwest 422 486 35,700  Descending Aus ATC (RADAR)
Wed 03:45:45 AM -33.3350 153.3250 220° Southwest 421 484 36,000 581 Climbing FlightAware ADS-B
Wed 03:46:16 AM -33.3800 153.2810 219° Southwest 422 486 36,000  Level FlightAware ADS-B
Wed 03:46:56 AM -33.4430 153.2170 220° Southwest 423 487 36,000  Level FlightAware ADS-B
Wed 03:47:29 AM -33.4920 153.1670 220° Southwest 423 487 36,000  Level FlightAware ADS-B
Wed 03:48:04 AM -33.5440 153.1150 220° Southwest 421 484 36,000 -474 Level FlightAware ADS-B
Wed 03:48:07 AM -33.5527 153.1062 220° Southwest 414 476 35,700  Descending Aus ATC (RADAR)
Wed 03:48:38 AM -33.5940 153.0640 220° Southwest 420 483 36,000  Climbing FlightAware ADS-B
Wed 03:48:42 AM -33.6045 153.0532 220° Southwest 413 475 35,700  Descending Aus ATC (RADAR)
Wed 03:49:14 AM -33.6470 153.0100 220° Southwest 420 483 36,000 265 Climbing FlightAware ADS-B
Wed 03:49:50 AM -33.7010 152.9550 220° Southwest 421 484 36,000 -493 Level FlightAware ADS-B
Wed 03:50:27 AM -33.7597 152.8952 220° Southwest 410 472 35,400 -571 Descending Aus ATC (RADAR)
Wed 03:50:32 AM -33.7620 152.8920 220° Southwest 415 478 35,600 -1,957 Climbing FlightAware ADS-B
Wed 03:51:13 AM -33.8220 152.8310 220° Southwest 407 468 33,900 -2,676 Descending FlightAware ADS-B
Wed 03:51:46 AM -33.8750 152.7783 220° Southwest 400 460 32,300 -2,294 Descending Aus ATC (RADAR)
Wed 03:51:47 AM -33.8720 152.7810 220° Southwest 393 452 32,600 -2,108 Climbing FlightAware ADS-B
Wed 03:52:23 AM -33.9210 152.7310 220° Southwest 392 451 31,000 -2,480 Descending FlightAware ADS-B
Wed 03:53:02 AM -33.9750 152.6760 220° Southwest 381 438 29,500 -2,229 Descending FlightAware ADS-B
Wed 03:53:33 AM -34.0150 152.6350 220° Southwest 367 422 28,400 -2,719 Descending FlightAware ADS-B
Wed 03:54:06 AM -34.0615 152.5868 220° Southwest 362 417 26,600 -2,270 Descending Aus ATC (RADAR)
Wed 03:54:10 AM -34.0580 152.5890 220° Southwest 352 405 27,000 -500 Climbing FlightAware ADS-B
Wed 03:54:18 AM -34.0680 152.5710 236° Southwest 340 391 26,500 -2,538 Descending FlightAware ADS-B
Wed 03:54:36 AM -34.0760 152.5420 252° West 334 384 25,900 -1,655 Descending FlightAware ADS-B
Wed 03:54:47 AM -34.0770 152.5230 266° West 334 384 25,700 -1,680 Descending FlightAware ADS-B
Wed 03:55:26 AM -34.0710 152.4470 275° West 323 372 24,500 -1,816 Descending FlightAware ADS-B
Wed 03:56:03 AM -34.0650 152.3850 277° West 329 379 23,400 -1,971 Descending FlightAware ADS-B
Wed 03:56:36 AM -34.0590 152.3220 277° West 323 372 22,200 -2,000 Descending FlightAware ADS-B
Wed 03:57:18 AM -34.0520 152.2500 277° West 316 364 20,900 -1,214 Descending FlightAware ADS-B
Wed 03:58:00 AM -34.0460 152.1850 276° West 316 364 20,500 -2,000 Descending FlightAware ADS-B
Wed 03:58:33 AM -34.0390 152.1130 277° West 317 365 18,400 -2,735 Descending FlightAware ADS-B
Wed 03:59:08 AM -34.0340 152.0560 276° West 312 359 17,400 -1,833 Descending FlightAware ADS-B
Wed 03:59:45 AM -34.0270 151.9920 278° West 306 352 16,200 -2,055 Descending FlightAware ADS-B
Wed 04:00:21 AM -34.0210 151.9310 277° West 302 348 14,900 -2,143 Descending FlightAware ADS-B
Wed 04:00:55 AM -34.0150 151.8740 277° West 299 344 13,700 -1,970 Descending FlightAware ADS-B
Wed 04:01:28 AM -34.0100 151.8210 276° West 293 337 12,700 -2,118 Descending FlightAware ADS-B
Wed 04:02:03 AM -34.0035 151.7592 276° West 289 333 11,300 -1,714 Descending Aus ATC (RADAR)
Wed 04:02:03 AM -34.0040 151.7620 276° West 288 331 11,700 -706 Climbing FlightAware ADS-B
Wed 04:02:37 AM -33.9990 151.7120 276° West 280 322 10,900 -2,229 Descending FlightAware ADS-B
Wed 04:02:38 AM -33.9977 151.7048 276° West 280 322 10,400 -769 Descending Aus ATC (RADAR)
Wed 04:03:16 AM -33.9930 151.6550 277° West 253 291 10,400 -833 Level FlightAware ADS-B
Wed 04:03:50 AM -33.9877 151.6042 277° West 235 270 9,400 -1,059 Descending Aus ATC (RADAR)
Wed 04:03:50 AM -33.9880 151.6090 277° West 235 270 9,800  Climbing FlightAware ADS-B
Wed 04:04:12 AM -33.9860 151.5820 275° West 232 267 9,400 -1,043 Descending FlightAware ADS-B
Wed 04:04:36 AM -33.9820 151.5490 278° West 243 280 9,000 -977 Descending FlightAware ADS-B
Wed 04:04:55 AM -33.9790 151.5220 278° West 244 281 8,700 -1,029 Descending FlightAware ADS-B
Wed 04:05:11 AM -33.9770 151.5010 277° West 243 280 8,400 -1,024 Descending FlightAware ADS-B
Wed 04:05:36 AM -33.9730 151.4670 278° West 251 289 8,000 -955 Descending FlightAware ADS-B
Wed 04:05:55 AM -33.9710 151.4400 275° West 254 292 7,700 -811 Descending FlightAware ADS-B
Wed 04:06:13 AM -33.9680 151.4150 278° West 252 290 7,500 -977 Descending FlightAware ADS-B
Wed 04:06:38 AM -33.9790 151.3800 249° West 252 290 7,000 -1,029 Descending FlightAware ADS-B
Wed 04:06:48 AM -33.9880 151.3710 220° Southwest 263 303 6,900 -800 Descending FlightAware ADS-B
Wed 04:06:53 AM -33.9940 151.3670 209° Southwest 260 299 6,800 -1,091 Descending FlightAware ADS-B
Wed 04:06:59 AM -34.0000 151.3640 203° Southwest 264 304 6,700 -968 Descending FlightAware ADS-B
Wed 04:07:24 AM -34.0300 151.3510 200° South 276 318 6,300 -1,050 Descending FlightAware ADS-B
Wed 04:07:39 AM -34.0490 151.3480 187° South 274 315 6,000 -1,200 Descending FlightAware ADS-B
Wed 04:07:59 AM -34.0750 151.3540 169° South 278 320 5,600 -1,050 Descending FlightAware ADS-B
Wed 04:08:19 AM -34.1020 151.3590 171° South 277 319 5,300 -1,050 Descending FlightAware ADS-B
Wed 04:08:39 AM -34.1250 151.3480 202° Southwest 259 298 4,900 -811 Descending FlightAware ADS-B
Wed 04:08:56 AM -34.1300 151.3400 233° Southwest 256 295 4,800 -1,000 Descending FlightAware ADS-B
Wed 04:09:09 AM -34.1370 151.3180 249° West 247 284 4,400 -1,241 Descending FlightAware ADS-B
Wed 04:09:25 AM -34.1400 151.2920 262° West 223 257 4,200 -833 Descending FlightAware ADS-B
Wed 04:09:45 AM -34.1330 151.2710 292° West 215 247 3,900 -960 Descending FlightAware ADS-B
Wed 04:09:50 AM -34.1300 151.2690 331° Northwest 207 238 3,800 -720 Descending FlightAware ADS-B
Wed 04:10:10 AM -34.1150 151.2530 319° Northwest 193 222 3,600 -720 Descending FlightAware ADS-B
Wed 04:10:40 AM -34.0950 151.2330 320° Northwest 170 196 3,200 -800 Descending FlightAware ADS-B
Wed 04:10:55 AM -34.0850 151.2250 326° Northwest 169 194 3,000 -533 Descending FlightAware ADS-B
Wed 04:11:25 AM -34.0710 151.2200 344° North 164 189 2,800 -933 Descending FlightAware ADS-B
Wed 04:11:40 AM -34.0570 151.2170 350° North 163 188 2,300 -1,946 Descending FlightAware ADS-B
Wed 04:12:02 AM -34.0380 151.2120 348° North 162 186 1,600 -1,435 Descending FlightAware ADS-B
Wed 04:12:26 AM -34.0220 151.2080 348° North 159 183 1,200 -814 Descending FlightAware ADS-B
Wed 04:13:01 AM -33.9950 151.2000 346° North 147 169 800 -643 Descending FlightAware ADS-B
Wed 04:13:22 AM -33.9820 151.1970 349° North 135 155 600 -585 Descending FlightAware ADS-B
Wed 04:13:42 AM -33.9680 151.1930 347° North 137 158 400 -600 Descending FlightAware ADS-B
Wed 04:14:02 AM -33.9580 151.1900 346° North 76 87 -1,200 Descending FlightAware ADS-B

Login

Don't have an account? Register now (free) for customized features, flight alerts, and more!